sensor_id;sensor_type;location;lat;lon;timestamp;P1;durP1;ratioP1;P2;durP2;ratioP2
76409;SDS011;65238;42.662;23.280;2023-07-22T00:01:04;12.52;;;6.30;;
76409;SDS011;65238;42.662;23.280;2023-07-22T00:03:29;12.40;;;5.43;;
76409;SDS011;65238;42.662;23.280;2023-07-22T00:06:08;15.02;;;6.38;;
76409;SDS011;65238;42.662;23.280;2023-07-22T00:08:37;16.40;;;6.72;;
76409;SDS011;65238;42.662;23.280;2023-07-22T00:11:06;12.40;;;5.95;;
76409;SDS011;65238;42.662;23.280;2023-07-22T00:13:32;14.00;;;6.43;;
76409;SDS011;65238;42.662;23.280;2023-07-22T00:15:58;13.88;;;6.10;;
76409;SDS011;65238;42.662;23.280;2023-07-22T00:18:25;10.90;;;5.70;;
76409;SDS011;65238;42.662;23.280;2023-07-22T00:20:52;15.50;;;6.20;;
76409;SDS011;65238;42.662;23.280;2023-07-22T00:23:18;12.23;;;6.80;;
76409;SDS011;65238;42.662;23.280;2023-07-22T00:25:45;18.02;;;6.03;;
76409;SDS011;65238;42.662;23.280;2023-07-22T00:28:11;13.32;;;5.75;;
76409;SDS011;65238;42.662;23.280;2023-07-22T00:30:36;12.52;;;6.18;;
76409;SDS011;65238;42.662;23.280;2023-07-22T00:33:02;14.07;;;6.22;;
76409;SDS011;65238;42.662;23.280;2023-07-22T00:35:27;13.75;;;6.03;;
76409;SDS011;65238;42.662;23.280;2023-07-22T00:37:52;13.80;;;6.30;;
76409;SDS011;65238;42.662;23.280;2023-07-22T00:40:18;16.83;;;5.82;;
76409;SDS011;65238;42.662;23.280;2023-07-22T00:42:44;13.27;;;6.10;;
76409;SDS011;65238;42.662;23.280;2023-07-22T00:45:09;16.15;;;6.47;;
76409;SDS011;65238;42.662;23.280;2023-07-22T00:47:37;13.02;;;6.18;;
76409;SDS011;65238;42.662;23.280;2023-07-22T00:50:03;11.57;;;6.45;;
76409;SDS011;65238;42.662;23.280;2023-07-22T00:52:31;9.85;;;5.70;;
76409;SDS011;65238;42.662;23.280;2023-07-22T00:54:57;13.00;;;6.03;;
76409;SDS011;65238;42.662;23.280;2023-07-22T00:57:23;12.73;;;5.57;;
76409;SDS011;65238;42.662;23.280;2023-07-22T00:59:51;13.57;;;6.20;;
76409;SDS011;65238;42.662;23.280;2023-07-22T01:02:17;12.88;;;6.00;;
76409;SDS011;65238;42.662;23.280;2023-07-22T01:04:43;12.60;;;5.70;;
76409;SDS011;65238;42.662;23.280;2023-07-22T01:07:09;13.35;;;6.18;;
76409;SDS011;65238;42.662;23.280;2023-07-22T01:09:38;12.40;;;6.18;;
76409;SDS011;65238;42.662;23.280;2023-07-22T01:12:05;13.68;;;6.10;;
76409;SDS011;65238;42.662;23.280;2023-07-22T01:14:38;12.18;;;5.88;;
76409;SDS011;65238;42.662;23.280;2023-07-22T01:17:06;13.90;;;5.97;;
76409;SDS011;65238;42.662;23.280;2023-07-22T01:19:33;9.35;;;5.72;;
76409;SDS011;65238;42.662;23.280;2023-07-22T01:22:03;14.27;;;6.63;;
76409;SDS011;65238;42.662;23.280;2023-07-22T01:24:38;11.45;;;6.03;;
76409;SDS011;65238;42.662;23.280;2023-07-22T01:27:04;13.68;;;5.82;;
76409;SDS011;65238;42.662;23.280;2023-07-22T01:29:33;17.35;;;5.88;;
76409;SDS011;65238;42.662;23.280;2023-07-22T01:31:59;10.55;;;5.53;;
76409;SDS011;65238;42.662;23.280;2023-07-22T01:34:24;11.02;;;5.85;;
76409;SDS011;65238;42.662;23.280;2023-07-22T01:36:50;10.00;;;5.65;;
76409;SDS011;65238;42.662;23.280;2023-07-22T01:39:16;11.77;;;6.07;;
76409;SDS011;65238;42.662;23.280;2023-07-22T01:41:42;9.45;;;5.50;;
76409;SDS011;65238;42.662;23.280;2023-07-22T01:44:08;10.27;;;5.78;;
76409;SDS011;65238;42.662;23.280;2023-07-22T01:46:33;10.02;;;6.57;;
76409;SDS011;65238;42.662;23.280;2023-07-22T01:48:59;15.05;;;6.32;;
76409;SDS011;65238;42.662;23.280;2023-07-22T01:51:24;10.88;;;5.90;;
76409;SDS011;65238;42.662;23.280;2023-07-22T01:53:50;13.00;;;5.88;;
76409;SDS011;65238;42.662;23.280;2023-07-22T01:56:16;14.27;;;6.10;;
76409;SDS011;65238;42.662;23.280;2023-07-22T01:58:41;11.25;;;5.82;;
76409;SDS011;65238;42.662;23.280;2023-07-22T02:01:07;9.50;;;5.35;;
76409;SDS011;65238;42.662;23.280;2023-07-22T02:03:32;14.57;;;6.85;;
76409;SDS011;65238;42.662;23.280;2023-07-22T02:06:04;8.48;;;5.47;;
76409;SDS011;65238;42.662;23.280;2023-07-22T02:08:30;10.02;;;5.97;;
76409;SDS011;65238;42.662;23.280;2023-07-22T02:11:00;14.43;;;6.57;;
76409;SDS011;65238;42.662;23.280;2023-07-22T02:13:30;13.27;;;5.57;;
76409;SDS011;65238;42.662;23.280;2023-07-22T02:15:56;9.05;;;5.68;;
76409;SDS011;65238;42.662;23.280;2023-07-22T02:18:22;17.95;;;7.43;;
76409;SDS011;65238;42.662;23.280;2023-07-22T02:20:47;11.63;;;6.65;;
76409;SDS011;65238;42.662;23.280;2023-07-22T02:23:13;10.43;;;6.45;;
76409;SDS011;65238;42.662;23.280;2023-07-22T02:25:39;12.70;;;6.32;;
76409;SDS011;65238;42.662;23.280;2023-07-22T02:28:04;10.93;;;6.50;;
76409;SDS011;65238;42.662;23.280;2023-07-22T02:30:33;10.63;;;6.13;;
76409;SDS011;65238;42.662;23.280;2023-07-22T02:33:00;11.30;;;6.18;;
76409;SDS011;65238;42.662;23.280;2023-07-22T02:35:27;11.70;;;6.22;;
76409;SDS011;65238;42.662;23.280;2023-07-22T02:37:52;10.45;;;5.78;;
76409;SDS011;65238;42.662;23.280;2023-07-22T02:40:18;11.15;;;6.32;;
76409;SDS011;65238;42.662;23.280;2023-07-22T02:42:43;13.63;;;6.80;;
76409;SDS011;65238;42.662;23.280;2023-07-22T02:45:09;15.07;;;6.40;;
76409;SDS011;65238;42.662;23.280;2023-07-22T02:47:34;13.98;;;6.45;;
76409;SDS011;65238;42.662;23.280;2023-07-22T02:50:00;9.32;;;5.78;;
76409;SDS011;65238;42.662;23.280;2023-07-22T02:52:26;14.18;;;6.07;;
76409;SDS011;65238;42.662;23.280;2023-07-22T02:57:36;15.77;;;6.43;;
76409;SDS011;65238;42.662;23.280;2023-07-22T03:00:03;11.60;;;6.50;;
76409;SDS011;65238;42.662;23.280;2023-07-22T03:02:32;14.43;;;6.28;;
76409;SDS011;65238;42.662;23.280;2023-07-22T03:04:58;11.75;;;6.38;;
76409;SDS011;65238;42.662;23.280;2023-07-22T03:07:23;13.02;;;6.28;;
76409;SDS011;65238;42.662;23.280;2023-07-22T03:09:51;10.50;;;6.03;;
76409;SDS011;65238;42.662;23.280;2023-07-22T03:12:17;16.45;;;6.85;;
76409;SDS011;65238;42.662;23.280;2023-07-22T03:14:42;16.33;;;7.20;;
76409;SDS011;65238;42.662;23.280;2023-07-22T03:17:07;13.77;;;7.10;;
76409;SDS011;65238;42.662;23.280;2023-07-22T03:19:33;11.13;;;6.57;;
76409;SDS011;65238;42.662;23.280;2023-07-22T03:21:58;15.38;;;6.75;;
76409;SDS011;65238;42.662;23.280;2023-07-22T03:24:23;13.25;;;7.03;;
76409;SDS011;65238;42.662;23.280;2023-07-22T03:26:50;12.07;;;6.75;;
76409;SDS011;65238;42.662;23.280;2023-07-22T03:29:15;12.77;;;6.72;;
76409;SDS011;65238;42.662;23.280;2023-07-22T03:31:41;14.32;;;7.00;;
76409;SDS011;65238;42.662;23.280;2023-07-22T03:34:06;14.95;;;7.50;;
76409;SDS011;65238;42.662;23.280;2023-07-22T03:36:31;15.82;;;6.93;;
76409;SDS011;65238;42.662;23.280;2023-07-22T03:39:00;14.10;;;7.10;;
76409;SDS011;65238;42.662;23.280;2023-07-22T03:41:26;13.27;;;6.68;;
76409;SDS011;65238;42.662;23.280;2023-07-22T03:43:51;11.05;;;7.30;;
76409;SDS011;65238;42.662;23.280;2023-07-22T03:46:16;19.52;;;7.45;;
76409;SDS011;65238;42.662;23.280;2023-07-22T03:48:42;22.25;;;7.43;;
76409;SDS011;65238;42.662;23.280;2023-07-22T03:51:07;13.73;;;7.43;;
76409;SDS011;65238;42.662;23.280;2023-07-22T03:53:33;18.50;;;7.88;;
76409;SDS011;65238;42.662;23.280;2023-07-22T03:55:58;17.15;;;7.38;;
76409;SDS011;65238;42.662;23.280;2023-07-22T03:58:23;16.00;;;7.78;;
76409;SDS011;65238;42.662;23.280;2023-07-22T04:00:49;15.73;;;7.10;;
76409;SDS011;65238;42.662;23.280;2023-07-22T04:03:15;19.55;;;8.35;;
76409;SDS011;65238;42.662;23.280;2023-07-22T04:05:40;14.45;;;7.32;;
76409;SDS011;65238;42.662;23.280;2023-07-22T04:08:05;16.23;;;7.95;;
76409;SDS011;65238;42.662;23.280;2023-07-22T04:10:31;16.80;;;6.90;;
76409;SDS011;65238;42.662;23.280;2023-07-22T04:12:56;17.70;;;7.53;;
76409;SDS011;65238;42.662;23.280;2023-07-22T04:15:22;14.50;;;6.90;;
76409;SDS011;65238;42.662;23.280;2023-07-22T04:17:47;16.65;;;6.65;;
76409;SDS011;65238;42.662;23.280;2023-07-22T04:20:13;13.35;;;6.60;;
76409;SDS011;65238;42.662;23.280;2023-07-22T04:22:38;14.55;;;6.97;;
76409;SDS011;65238;42.662;23.280;2023-07-22T04:25:04;16.15;;;6.68;;
76409;SDS011;65238;42.662;23.280;2023-07-22T04:27:30;12.30;;;6.68;;
76409;SDS011;65238;42.662;23.280;2023-07-22T04:29:55;19.42;;;7.35;;
76409;SDS011;65238;42.662;23.280;2023-07-22T04:32:21;14.73;;;6.63;;
76409;SDS011;65238;42.662;23.280;2023-07-22T04:34:46;14.85;;;7.13;;
76409;SDS011;65238;42.662;23.280;2023-07-22T04:37:12;12.32;;;6.22;;
76409;SDS011;65238;42.662;23.280;2023-07-22T04:39:38;14.55;;;7.20;;
76409;SDS011;65238;42.662;23.280;2023-07-22T04:42:03;15.57;;;7.00;;
76409;SDS011;65238;42.662;23.280;2023-07-22T04:44:29;14.20;;;6.53;;
76409;SDS011;65238;42.662;23.280;2023-07-22T04:46:54;15.23;;;6.72;;
76409;SDS011;65238;42.662;23.280;2023-07-22T04:49:20;13.77;;;6.60;;
76409;SDS011;65238;42.662;23.280;2023-07-22T04:51:46;15.68;;;6.82;;
76409;SDS011;65238;42.662;23.280;2023-07-22T04:54:12;18.63;;;6.15;;
76409;SDS011;65238;42.662;23.280;2023-07-22T04:56:38;11.55;;;6.25;;
76409;SDS011;65238;42.662;23.280;2023-07-22T04:59:03;15.32;;;6.60;;
76409;SDS011;65238;42.662;23.280;2023-07-22T05:01:29;11.27;;;6.88;;
76409;SDS011;65238;42.662;23.280;2023-07-22T05:03:54;12.07;;;6.90;;
76409;SDS011;65238;42.662;23.280;2023-07-22T05:06:20;12.27;;;6.20;;
76409;SDS011;65238;42.662;23.280;2023-07-22T05:08:46;11.70;;;6.60;;
76409;SDS011;65238;42.662;23.280;2023-07-22T05:11:11;14.70;;;7.32;;
76409;SDS011;65238;42.662;23.280;2023-07-22T05:13:37;10.98;;;7.00;;
76409;SDS011;65238;42.662;23.280;2023-07-22T05:16:02;12.00;;;6.82;;
76409;SDS011;65238;42.662;23.280;2023-07-22T05:18:28;8.48;;;5.85;;
76409;SDS011;65238;42.662;23.280;2023-07-22T05:20:53;13.23;;;6.43;;
76409;SDS011;65238;42.662;23.280;2023-07-22T05:23:18;11.07;;;6.28;;
76409;SDS011;65238;42.662;23.280;2023-07-22T05:25:49;11.32;;;6.72;;
76409;SDS011;65238;42.662;23.280;2023-07-22T05:28:16;10.85;;;6.72;;
76409;SDS011;65238;42.662;23.280;2023-07-22T05:30:41;10.10;;;6.43;;
76409;SDS011;65238;42.662;23.280;2023-07-22T05:33:06;11.18;;;6.95;;
76409;SDS011;65238;42.662;23.280;2023-07-22T05:35:32;14.25;;;7.53;;
76409;SDS011;65238;42.662;23.280;2023-07-22T05:37:57;8.63;;;6.72;;
76409;SDS011;65238;42.662;23.280;2023-07-22T05:40:22;15.98;;;6.90;;
76409;SDS011;65238;42.662;23.280;2023-07-22T05:42:48;11.38;;;6.93;;
76409;SDS011;65238;42.662;23.280;2023-07-22T05:45:13;10.68;;;6.55;;
76409;SDS011;65238;42.662;23.280;2023-07-22T05:47:40;10.43;;;6.68;;
76409;SDS011;65238;42.662;23.280;2023-07-22T05:50:06;12.68;;;7.65;;
76409;SDS011;65238;42.662;23.280;2023-07-22T05:52:31;17.33;;;7.30;;
76409;SDS011;65238;42.662;23.280;2023-07-22T05:54:57;12.63;;;7.55;;
76409;SDS011;65238;42.662;23.280;2023-07-22T05:57:22;14.05;;;8.70;;
76409;SDS011;65238;42.662;23.280;2023-07-22T05:59:48;12.18;;;7.40;;
76409;SDS011;65238;42.662;23.280;2023-07-22T06:02:13;12.25;;;7.25;;
76409;SDS011;65238;42.662;23.280;2023-07-22T06:04:38;13.63;;;7.10;;
76409;SDS011;65238;42.662;23.280;2023-07-22T06:07:04;9.55;;;7.32;;
76409;SDS011;65238;42.662;23.280;2023-07-22T06:09:30;13.02;;;7.07;;
76409;SDS011;65238;42.662;23.280;2023-07-22T06:11:55;12.55;;;6.75;;
76409;SDS011;65238;42.662;23.280;2023-07-22T06:14:20;11.93;;;7.05;;
76409;SDS011;65238;42.662;23.280;2023-07-22T06:16:46;10.57;;;7.50;;
76409;SDS011;65238;42.662;23.280;2023-07-22T06:19:11;9.82;;;6.85;;
76409;SDS011;65238;42.662;23.280;2023-07-22T06:21:36;13.52;;;7.07;;
76409;SDS011;65238;42.662;23.280;2023-07-22T06:24:02;12.25;;;7.68;;
76409;SDS011;65238;42.662;23.280;2023-07-22T06:26:27;12.23;;;7.32;;
76409;SDS011;65238;42.662;23.280;2023-07-22T06:28:53;13.82;;;7.50;;
76409;SDS011;65238;42.662;23.280;2023-07-22T06:31:18;16.35;;;7.10;;
76409;SDS011;65238;42.662;23.280;2023-07-22T06:33:44;12.45;;;7.15;;
76409;SDS011;65238;42.662;23.280;2023-07-22T06:36:09;12.25;;;7.38;;
76409;SDS011;65238;42.662;23.280;2023-07-22T06:38:34;13.70;;;7.88;;
76409;SDS011;65238;42.662;23.280;2023-07-22T06:41:00;11.32;;;7.40;;
76409;SDS011;65238;42.662;23.280;2023-07-22T06:43:25;14.90;;;8.13;;
76409;SDS011;65238;42.662;23.280;2023-07-22T06:45:50;13.52;;;7.70;;
76409;SDS011;65238;42.662;23.280;2023-07-22T06:48:16;15.38;;;9.20;;
76409;SDS011;65238;42.662;23.280;2023-07-22T06:50:48;17.48;;;8.63;;
76409;SDS011;65238;42.662;23.280;2023-07-22T06:53:14;16.52;;;8.15;;
76409;SDS011;65238;42.662;23.280;2023-07-22T06:55:40;11.52;;;8.20;;
76409;SDS011;65238;42.662;23.280;2023-07-22T06:58:05;19.40;;;7.85;;
76409;SDS011;65238;42.662;23.280;2023-07-22T07:00:31;11.32;;;7.30;;
76409;SDS011;65238;42.662;23.280;2023-07-22T07:02:56;13.20;;;7.13;;
76409;SDS011;65238;42.662;23.280;2023-07-22T07:05:21;15.18;;;7.80;;
76409;SDS011;65238;42.662;23.280;2023-07-22T07:07:48;14.27;;;8.32;;
76409;SDS011;65238;42.662;23.280;2023-07-22T07:10:14;14.40;;;8.25;;
76409;SDS011;65238;42.662;23.280;2023-07-22T07:12:39;18.75;;;8.75;;
76409;SDS011;65238;42.662;23.280;2023-07-22T07:15:05;13.55;;;8.27;;
76409;SDS011;65238;42.662;23.280;2023-07-22T07:17:31;12.35;;;8.30;;
76409;SDS011;65238;42.662;23.280;2023-07-22T07:19:56;17.13;;;8.77;;
76409;SDS011;65238;42.662;23.280;2023-07-22T07:22:21;14.90;;;8.57;;
76409;SDS011;65238;42.662;23.280;2023-07-22T07:24:47;18.05;;;9.18;;
76409;SDS011;65238;42.662;23.280;2023-07-22T07:27:12;18.98;;;8.30;;
76409;SDS011;65238;42.662;23.280;2023-07-22T07:29:38;16.42;;;8.90;;
76409;SDS011;65238;42.662;23.280;2023-07-22T07:32:03;13.35;;;8.20;;
76409;SDS011;65238;42.662;23.280;2023-07-22T07:34:29;12.15;;;8.73;;
76409;SDS011;65238;42.662;23.280;2023-07-22T07:36:54;16.85;;;8.35;;
76409;SDS011;65238;42.662;23.280;2023-07-22T07:39:20;15.23;;;9.18;;
76409;SDS011;65238;42.662;23.280;2023-07-22T07:41:48;18.90;;;9.27;;
76409;SDS011;65238;42.662;23.280;2023-07-22T07:47:14;18.33;;;9.10;;
76409;SDS011;65238;42.662;23.280;2023-07-22T07:50:02;13.73;;;8.30;;
76409;SDS011;65238;42.662;23.280;2023-07-22T07:52:37;20.23;;;8.90;;
76409;SDS011;65238;42.662;23.280;2023-07-22T07:55:12;11.85;;;8.43;;
76409;SDS011;65238;42.662;23.280;2023-07-22T07:57:40;13.60;;;8.40;;
76409;SDS011;65238;42.662;23.280;2023-07-22T08:00:08;17.45;;;9.63;;
76409;SDS011;65238;42.662;23.280;2023-07-22T08:02:34;14.30;;;8.45;;
76409;SDS011;65238;42.662;23.280;2023-07-22T08:05:00;20.30;;;8.93;;
76409;SDS011;65238;42.662;23.280;2023-07-22T08:07:26;19.25;;;8.88;;
76409;SDS011;65238;42.662;23.280;2023-07-22T08:09:51;16.63;;;8.65;;
76409;SDS011;65238;42.662;23.280;2023-07-22T08:12:17;18.38;;;8.15;;
76409;SDS011;65238;42.662;23.280;2023-07-22T08:14:43;17.10;;;8.30;;
76409;SDS011;65238;42.662;23.280;2023-07-22T08:17:09;10.75;;;8.43;;
76409;SDS011;65238;42.662;23.280;2023-07-22T08:19:37;13.50;;;8.38;;
76409;SDS011;65238;42.662;23.280;2023-07-22T08:22:03;12.90;;;7.95;;
76409;SDS011;65238;42.662;23.280;2023-07-22T08:24:29;18.63;;;9.23;;
76409;SDS011;65238;42.662;23.280;2023-07-22T08:26:54;15.00;;;8.57;;
76409;SDS011;65238;42.662;23.280;2023-07-22T08:29:20;19.98;;;9.13;;
76409;SDS011;65238;42.662;23.280;2023-07-22T08:31:45;13.30;;;9.32;;
76409;SDS011;65238;42.662;23.280;2023-07-22T08:34:10;19.23;;;9.07;;
76409;SDS011;65238;42.662;23.280;2023-07-22T08:36:36;17.73;;;9.27;;
76409;SDS011;65238;42.662;23.280;2023-07-22T08:39:01;16.35;;;9.13;;
76409;SDS011;65238;42.662;23.280;2023-07-22T08:41:27;19.90;;;9.75;;
76409;SDS011;65238;42.662;23.280;2023-07-22T08:43:53;20.17;;;9.98;;
76409;SDS011;65238;42.662;23.280;2023-07-22T08:46:19;16.52;;;8.60;;
76409;SDS011;65238;42.662;23.280;2023-07-22T08:48:49;21.58;;;9.63;;
76409;SDS011;65238;42.662;23.280;2023-07-22T08:51:18;16.08;;;9.10;;
76409;SDS011;65238;42.662;23.280;2023-07-22T08:53:44;17.38;;;9.65;;
76409;SDS011;65238;42.662;23.280;2023-07-22T08:56:10;21.60;;;9.75;;
76409;SDS011;65238;42.662;23.280;2023-07-22T08:58:36;17.20;;;9.25;;
76409;SDS011;65238;42.662;23.280;2023-07-22T09:01:02;21.48;;;9.40;;
76409;SDS011;65238;42.662;23.280;2023-07-22T09:03:28;18.65;;;9.65;;
76409;SDS011;65238;42.662;23.280;2023-07-22T09:05:54;19.77;;;10.27;;
76409;SDS011;65238;42.662;23.280;2023-07-22T09:08:19;18.48;;;9.43;;
76409;SDS011;65238;42.662;23.280;2023-07-22T09:10:46;20.20;;;10.95;;
76409;SDS011;65238;42.662;23.280;2023-07-22T09:13:12;13.93;;;8.65;;
76409;SDS011;65238;42.662;23.280;2023-07-22T09:15:39;17.92;;;8.55;;
76409;SDS011;65238;42.662;23.280;2023-07-22T09:18:05;18.40;;;8.35;;
76409;SDS011;65238;42.662;23.280;2023-07-22T09:20:31;14.38;;;8.48;;
76409;SDS011;65238;42.662;23.280;2023-07-22T09:22:56;21.63;;;9.23;;
76409;SDS011;65238;42.662;23.280;2023-07-22T09:25:23;17.77;;;9.55;;
76409;SDS011;65238;42.662;23.280;2023-07-22T09:27:50;13.98;;;8.98;;
76409;SDS011;65238;42.662;23.280;2023-07-22T09:35:47;15.07;;;10.00;;
76409;SDS011;65238;42.662;23.280;2023-07-22T09:38:13;12.77;;;8.30;;
76409;SDS011;65238;42.662;23.280;2023-07-22T09:40:40;14.18;;;8.52;;
76409;SDS011;65238;42.662;23.280;2023-07-22T09:43:08;20.15;;;8.88;;
76409;SDS011;65238;42.662;23.280;2023-07-22T09:45:35;19.30;;;7.55;;
76409;SDS011;65238;42.662;23.280;2023-07-22T09:48:00;19.75;;;8.73;;
76409;SDS011;65238;42.662;23.280;2023-07-22T09:50:26;21.05;;;8.55;;
76409;SDS011;65238;42.662;23.280;2023-07-22T09:52:53;14.82;;;8.38;;
76409;SDS011;65238;42.662;23.280;2023-07-22T09:55:21;22.60;;;8.20;;
76409;SDS011;65238;42.662;23.280;2023-07-22T09:57:53;18.17;;;9.07;;
76409;SDS011;65238;42.662;23.280;2023-07-22T10:00:19;18.75;;;8.98;;
76409;SDS011;65238;42.662;23.280;2023-07-22T10:02:46;18.45;;;8.80;;
76409;SDS011;65238;42.662;23.280;2023-07-22T10:05:15;21.50;;;9.27;;
76409;SDS011;65238;42.662;23.280;2023-07-22T10:07:51;21.10;;;8.75;;
76409;SDS011;65238;42.662;23.280;2023-07-22T10:10:39;19.88;;;9.32;;
76409;SDS011;65238;42.662;23.280;2023-07-22T10:13:04;22.30;;;8.38;;
76409;SDS011;65238;42.662;23.280;2023-07-22T10:15:33;16.50;;;8.07;;
76409;SDS011;65238;42.662;23.280;2023-07-22T10:18:00;19.80;;;8.15;;
76409;SDS011;65238;42.662;23.280;2023-07-22T10:20:26;13.80;;;8.15;;
76409;SDS011;65238;42.662;23.280;2023-07-22T10:22:51;29.05;;;9.95;;
76409;SDS011;65238;42.662;23.280;2023-07-22T10:25:18;15.38;;;7.65;;
76409;SDS011;65238;42.662;23.280;2023-07-22T10:27:44;21.80;;;6.90;;
76409;SDS011;65238;42.662;23.280;2023-07-22T10:30:14;21.83;;;6.38;;
76409;SDS011;65238;42.662;23.280;2023-07-22T10:32:51;28.48;;;7.70;;
76409;SDS011;65238;42.662;23.280;2023-07-22T10:40:47;24.13;;;6.63;;
76409;SDS011;65238;42.662;23.280;2023-07-22T10:43:15;22.90;;;5.82;;
76409;SDS011;65238;42.662;23.280;2023-07-22T10:45:43;21.90;;;7.55;;
76409;SDS011;65238;42.662;23.280;2023-07-22T10:48:14;23.48;;;6.82;;
76409;SDS011;65238;42.662;23.280;2023-07-22T10:50:44;20.40;;;7.15;;
76409;SDS011;65238;42.662;23.280;2023-07-22T10:53:12;16.65;;;6.63;;
76409;SDS011;65238;42.662;23.280;2023-07-22T11:06:56;19.20;;;6.25;;
76409;SDS011;65238;42.662;23.280;2023-07-22T11:14:37;29.17;;;7.70;;
76409;SDS011;65238;42.662;23.280;2023-07-22T11:17:05;23.65;;;6.22;;
76409;SDS011;65238;42.662;23.280;2023-07-22T11:19:33;16.75;;;6.30;;
76409;SDS011;65238;42.662;23.280;2023-07-22T11:21:59;22.33;;;7.72;;
76409;SDS011;65238;42.662;23.280;2023-07-22T11:24:25;21.83;;;6.90;;
76409;SDS011;65238;42.662;23.280;2023-07-22T11:26:51;21.40;;;5.95;;
76409;SDS011;65238;42.662;23.280;2023-07-22T11:29:18;20.50;;;6.28;;
76409;SDS011;65238;42.662;23.280;2023-07-22T11:31:44;26.15;;;7.38;;
76409;SDS011;65238;42.662;23.280;2023-07-22T11:36:47;17.90;;;6.55;;
76409;SDS011;65238;42.662;23.280;2023-07-22T11:39:34;23.17;;;6.75;;
76409;SDS011;65238;42.662;23.280;2023-07-22T11:42:00;20.98;;;7.03;;
76409;SDS011;65238;42.662;23.280;2023-07-22T11:44:27;20.42;;;6.80;;
76409;SDS011;65238;42.662;23.280;2023-07-22T11:49:32;22.77;;;6.70;;
76409;SDS011;65238;42.662;23.280;2023-07-22T11:52:05;30.40;;;6.50;;
76409;SDS011;65238;42.662;23.280;2023-07-22T11:54:36;21.92;;;6.82;;
76409;SDS011;65238;42.662;23.280;2023-07-22T11:57:36;24.40;;;7.10;;
76409;SDS011;65238;42.662;23.280;2023-07-22T11:59:55;22.65;;;6.45;;
76409;SDS011;65238;42.662;23.280;2023-07-22T12:02:22;23.50;;;6.75;;
76409;SDS011;65238;42.662;23.280;2023-07-22T12:04:53;21.42;;;6.57;;
76409;SDS011;65238;42.662;23.280;2023-07-22T12:07:33;21.80;;;8.00;;
76409;SDS011;65238;42.662;23.280;2023-07-22T12:10:00;23.85;;;6.88;;
76409;SDS011;65238;42.662;23.280;2023-07-22T12:12:38;24.67;;;7.40;;
76409;SDS011;65238;42.662;23.280;2023-07-22T12:15:12;24.85;;;6.55;;
76409;SDS011;65238;42.662;23.280;2023-07-22T12:17:49;19.15;;;7.03;;
76409;SDS011;65238;42.662;23.280;2023-07-22T12:20:16;19.50;;;6.57;;
76409;SDS011;65238;42.662;23.280;2023-07-22T12:22:42;17.77;;;5.95;;
76409;SDS011;65238;42.662;23.280;2023-07-22T12:25:08;22.67;;;6.82;;
76409;SDS011;65238;42.662;23.280;2023-07-22T12:27:34;27.23;;;7.53;;
76409;SDS011;65238;42.662;23.280;2023-07-22T12:29:59;19.80;;;6.32;;
76409;SDS011;65238;42.662;23.280;2023-07-22T12:32:31;20.17;;;6.53;;
76409;SDS011;65238;42.662;23.280;2023-07-22T12:34:57;25.42;;;7.10;;
76409;SDS011;65238;42.662;23.280;2023-07-22T12:37:22;18.65;;;6.63;;
76409;SDS011;65238;42.662;23.280;2023-07-22T12:39:48;17.83;;;6.28;;
76409;SDS011;65238;42.662;23.280;2023-07-22T12:42:22;29.10;;;7.07;;
76409;SDS011;65238;42.662;23.280;2023-07-22T12:44:48;20.25;;;6.43;;
76409;SDS011;65238;42.662;23.280;2023-07-22T12:47:13;23.13;;;6.25;;
76409;SDS011;65238;42.662;23.280;2023-07-22T12:49:39;22.25;;;6.18;;
76409;SDS011;65238;42.662;23.280;2023-07-22T12:52:04;25.80;;;5.88;;
76409;SDS011;65238;42.662;23.280;2023-07-22T12:54:36;19.80;;;7.22;;
76409;SDS011;65238;42.662;23.280;2023-07-22T12:57:10;23.00;;;6.38;;
76409;SDS011;65238;42.662;23.280;2023-07-22T12:59:38;20.20;;;6.28;;
76409;SDS011;65238;42.662;23.280;2023-07-22T13:02:06;24.48;;;6.53;;
76409;SDS011;65238;42.662;23.280;2023-07-22T13:04:31;26.55;;;6.13;;
76409;SDS011;65238;42.662;23.280;2023-07-22T13:06:56;18.13;;;5.60;;
76409;SDS011;65238;42.662;23.280;2023-07-22T13:09:22;16.23;;;6.22;;
76409;SDS011;65238;42.662;23.280;2023-07-22T13:11:47;25.77;;;6.40;;
76409;SDS011;65238;42.662;23.280;2023-07-22T13:14:13;17.05;;;5.70;;
76409;SDS011;65238;42.662;23.280;2023-07-22T13:16:39;17.80;;;5.68;;
76409;SDS011;65238;42.662;23.280;2023-07-22T13:19:04;22.23;;;6.05;;
76409;SDS011;65238;42.662;23.280;2023-07-22T13:21:30;23.65;;;6.43;;
76409;SDS011;65238;42.662;23.280;2023-07-22T13:23:55;13.98;;;5.13;;
76409;SDS011;65238;42.662;23.280;2023-07-22T13:26:21;23.65;;;6.38;;
76409;SDS011;65238;42.662;23.280;2023-07-22T13:28:46;21.00;;;6.75;;
76409;SDS011;65238;42.662;23.280;2023-07-22T13:31:11;20.80;;;6.07;;
76409;SDS011;65238;42.662;23.280;2023-07-22T13:33:37;22.35;;;6.13;;
76409;SDS011;65238;42.662;23.280;2023-07-22T13:36:02;24.83;;;7.13;;
76409;SDS011;65238;42.662;23.280;2023-07-22T13:38:28;17.70;;;6.95;;
76409;SDS011;65238;42.662;23.280;2023-07-22T13:40:53;21.95;;;6.45;;
76409;SDS011;65238;42.662;23.280;2023-07-22T13:43:18;24.65;;;7.07;;
76409;SDS011;65238;42.662;23.280;2023-07-22T13:45:44;19.00;;;6.75;;
76409;SDS011;65238;42.662;23.280;2023-07-22T13:48:09;20.95;;;5.75;;
76409;SDS011;65238;42.662;23.280;2023-07-22T13:50:36;20.58;;;5.93;;
76409;SDS011;65238;42.662;23.280;2023-07-22T13:53:02;22.67;;;5.47;;
76409;SDS011;65238;42.662;23.280;2023-07-22T13:55:27;24.10;;;5.88;;
76409;SDS011;65238;42.662;23.280;2023-07-22T13:57:53;20.75;;;6.93;;
76409;SDS011;65238;42.662;23.280;2023-07-22T14:00:18;26.52;;;6.20;;
76409;SDS011;65238;42.662;23.280;2023-07-22T14:02:43;23.55;;;6.13;;
76409;SDS011;65238;42.662;23.280;2023-07-22T14:05:09;25.58;;;6.78;;
76409;SDS011;65238;42.662;23.280;2023-07-22T14:07:35;20.65;;;6.85;;
76409;SDS011;65238;42.662;23.280;2023-07-22T14:10:04;26.02;;;6.53;;
76409;SDS011;65238;42.662;23.280;2023-07-22T14:12:31;23.33;;;6.82;;
76409;SDS011;65238;42.662;23.280;2023-07-22T14:15:00;26.42;;;6.97;;
76409;SDS011;65238;42.662;23.280;2023-07-22T14:17:49;28.05;;;6.50;;
76409;SDS011;65238;42.662;23.280;2023-07-22T14:20:23;27.27;;;7.28;;
76409;SDS011;65238;42.662;23.280;2023-07-22T14:22:48;26.70;;;6.15;;
76409;SDS011;65238;42.662;23.280;2023-07-22T14:25:22;19.63;;;5.95;;
76409;SDS011;65238;42.662;23.280;2023-07-22T14:27:51;29.15;;;6.30;;
76409;SDS011;65238;42.662;23.280;2023-07-22T14:30:16;19.00;;;6.43;;
76409;SDS011;65238;42.662;23.280;2023-07-22T14:32:42;19.27;;;6.45;;
76409;SDS011;65238;42.662;23.280;2023-07-22T14:35:07;30.10;;;7.45;;
76409;SDS011;65238;42.662;23.280;2023-07-22T14:37:33;21.95;;;6.72;;
76409;SDS011;65238;42.662;23.280;2023-07-22T14:39:59;22.25;;;5.43;;
76409;SDS011;65238;42.662;23.280;2023-07-22T14:42:24;28.17;;;5.90;;
76409;SDS011;65238;42.662;23.280;2023-07-22T14:44:50;21.90;;;6.55;;
76409;SDS011;65238;42.662;23.280;2023-07-22T14:47:15;23.67;;;5.82;;
76409;SDS011;65238;42.662;23.280;2023-07-22T14:49:40;22.45;;;6.07;;
76409;SDS011;65238;42.662;23.280;2023-07-22T14:52:06;28.80;;;6.90;;
76409;SDS011;65238;42.662;23.280;2023-07-22T14:54:32;22.27;;;5.95;;
76409;SDS011;65238;42.662;23.280;2023-07-22T14:56:58;17.83;;;6.53;;